createdAt,value
2022-11-16T00:01:57.402Z,71.50
2022-11-16T00:04:28.186Z,72.20
2022-11-16T00:06:56.440Z,71.90
2022-11-16T00:09:27.012Z,73.00
2022-11-16T00:11:56.568Z,72.60
2022-11-16T00:14:25.956Z,72.60
2022-11-16T00:16:55.712Z,71.80
2022-11-16T00:19:24.310Z,72.00
2022-11-16T00:21:52.759Z,71.50
2022-11-16T00:24:21.706Z,71.10
2022-11-16T00:26:50.104Z,71.20
2022-11-16T00:29:19.252Z,71.70
2022-11-16T00:31:47.757Z,72.00
2022-11-16T00:34:17.403Z,72.50
2022-11-16T00:36:45.795Z,72.70
2022-11-16T00:39:14.031Z,73.00
2022-11-16T00:41:42.188Z,72.20
2022-11-16T00:44:10.523Z,72.90
2022-11-16T00:46:38.819Z,72.20
2022-11-16T00:49:07.054Z,72.00
2022-11-16T00:51:37.074Z,71.50
2022-11-16T00:54:05.996Z,70.60
2022-11-16T00:56:36.454Z,70.40
2022-11-16T00:59:05.632Z,70.00
2022-11-16T01:01:34.068Z,70.40
2022-11-16T01:04:04.988Z,70.30
2022-11-16T01:06:33.049Z,70.90
2022-11-16T01:09:03.311Z,71.20
2022-11-16T01:11:48.999Z,71.00
2022-11-16T01:14:18.404Z,70.70
2022-11-16T01:16:46.553Z,71.00
2022-11-16T01:19:14.673Z,70.80
2022-11-16T01:21:42.917Z,70.80
2022-11-16T01:24:12.439Z,71.30
2022-11-16T01:26:40.489Z,71.10
2022-11-16T01:29:11.044Z,71.80
2022-11-16T01:31:43.583Z,72.30
2022-11-16T01:34:11.746Z,73.00
2022-11-16T01:36:39.820Z,73.30
2022-11-16T01:39:08.757Z,73.80
2022-11-16T01:41:52.073Z,73.80
2022-11-16T01:44:38.913Z,73.40
2022-11-16T01:47:17.740Z,73.50
2022-11-16T01:49:48.995Z,73.60
2022-11-16T01:52:21.519Z,73.40
2022-11-16T01:54:51.111Z,72.80
2022-11-16T01:57:23.341Z,72.60
2022-11-16T02:00:06.994Z,71.90
2022-11-16T02:02:52.909Z,71.00
2022-11-16T02:05:45.604Z,71.00
2022-11-16T02:08:45.731Z,70.90
2022-11-16T02:11:33.350Z,70.80
2022-11-16T02:14:16.661Z,70.90
2022-11-16T02:16:52.955Z,71.20
2022-11-16T02:19:59.786Z,72.00
2022-11-16T02:22:40.751Z,71.60
2022-11-16T02:25:14.176Z,72.00
2022-11-16T02:28:21.545Z,72.20
2022-11-16T02:30:53.943Z,72.30
2022-11-16T02:33:26.992Z,71.50
2022-11-16T02:35:58.433Z,72.20
2022-11-16T02:38:31.560Z,71.90
2022-11-16T02:41:06.123Z,71.40
2022-11-16T02:43:39.918Z,71.60
2022-11-16T02:46:14.624Z,71.80
2022-11-16T02:48:50.489Z,72.20
2022-11-16T02:51:19.992Z,72.50
2022-11-16T02:54:02.345Z,72.50
2022-11-16T02:56:31.919Z,72.70
2022-11-16T02:59:01.249Z,73.50
2022-11-16T03:01:37.942Z,73.60
2022-11-16T03:04:13.978Z,73.60
2022-11-16T03:06:48.119Z,73.20
2022-11-16T03:09:20.382Z,73.70
2022-11-16T03:12:00.537Z,72.40
2022-11-16T03:14:36.969Z,72.50
2022-11-16T03:17:10.955Z,72.00
2022-11-16T03:19:45.312Z,71.30
2022-11-16T03:22:17.308Z,71.40
2022-11-16T03:24:46.017Z,71.80
2022-11-16T03:27:25.713Z,71.80
2022-11-16T03:30:03.665Z,71.30
2022-11-16T03:32:38.922Z,71.90
2022-11-16T03:35:15.638Z,72.10
2022-11-16T03:37:45.844Z,72.20
2022-11-16T03:40:16.944Z,72.20
2022-11-16T03:42:45.813Z,73.10
2022-11-16T03:45:14.607Z,73.80
2022-11-16T03:47:44.774Z,73.30
2022-11-16T03:50:13.392Z,73.30
2022-11-16T03:52:42.017Z,73.70
2022-11-16T03:55:10.528Z,73.10
2022-11-16T03:57:38.667Z,72.60
2022-11-16T04:00:07.732Z,72.40
2022-11-16T04:02:41.373Z,72.10
2022-11-16T04:05:32.993Z,73.30
2022-11-16T04:08:18.426Z,72.30
2022-11-16T04:11:04.037Z,71.40
2022-11-16T04:13:52.001Z,71.60
2022-11-16T04:16:37.486Z,70.90
2022-11-16T04:19:26.966Z,71.30
2022-11-16T04:22:15.087Z,71.20
2022-11-16T04:24:44.834Z,70.80
2022-11-16T04:27:31.812Z,71.20
2022-11-16T04:30:04.789Z,71.60
2022-11-16T04:32:52.633Z,71.30
2022-11-16T04:35:43.563Z,70.90
2022-11-16T04:38:16.274Z,70.80
2022-11-16T04:40:44.451Z,70.90
2022-11-16T04:43:14.316Z,70.50
2022-11-16T04:46:02.165Z,70.20
2022-11-16T04:48:37.957Z,70.40
2022-11-16T04:51:06.316Z,71.10
2022-11-16T04:53:36.840Z,71.10
2022-11-16T04:56:16.416Z,71.80
2022-11-16T04:58:44.504Z,71.60
2022-11-16T05:01:12.714Z,71.00
2022-11-16T05:03:40.909Z,70.60
2022-11-16T05:06:09.009Z,70.80
2022-11-16T05:08:40.815Z,71.50
2022-11-16T05:11:08.985Z,71.10
2022-11-16T05:13:37.323Z,71.20
2022-11-16T05:16:05.577Z,71.30
2022-11-16T05:18:33.995Z,71.30
2022-11-16T05:21:02.541Z,70.80
2022-11-16T05:23:53.633Z,71.50
2022-11-16T05:26:25.597Z,71.70
2022-11-16T05:28:56.357Z,71.10
2022-11-16T05:31:24.414Z,70.90
2022-11-16T05:33:52.791Z,70.90
2022-11-16T05:36:21.247Z,70.60
2022-11-16T05:38:52.697Z,70.80
2022-11-16T05:41:27.027Z,70.40
2022-11-16T05:43:55.217Z,70.20
2022-11-16T05:46:25.627Z,69.90
2022-11-16T05:48:57.784Z,69.60
2022-11-16T05:51:26.804Z,69.80
2022-11-16T05:53:56.174Z,70.20
2022-11-16T05:56:25.020Z,70.50
2022-11-16T05:58:56.389Z,70.10
2022-11-16T06:01:24.502Z,70.40
2022-11-16T06:03:52.771Z,69.80
2022-11-16T06:06:21.074Z,69.40
2022-11-16T06:08:50.643Z,69.80
2022-11-16T06:11:24.045Z,69.30
2022-11-16T06:13:52.316Z,69.40
2022-11-16T06:16:21.954Z,69.40
2022-11-16T06:18:50.182Z,69.50
2022-11-16T06:21:19.725Z,69.30
2022-11-16T06:23:48.487Z,69.30
2022-11-16T06:26:16.615Z,69.30
2022-11-16T06:28:44.891Z,69.10
2022-11-16T06:31:13.525Z,69.30
2022-11-16T06:33:45.505Z,69.30
2022-11-16T06:36:24.440Z,69.50
2022-11-16T06:38:54.769Z,69.50
2022-11-16T06:41:23.870Z,69.50
2022-11-16T06:43:52.655Z,69.20
2022-11-16T06:46:25.651Z,69.90
2022-11-16T06:48:57.401Z,69.60
2022-11-16T06:51:26.128Z,69.20
2022-11-16T06:53:54.325Z,68.70
2022-11-16T06:56:25.236Z,69.00
2022-11-16T06:58:56.933Z,68.90
2022-11-16T07:01:26.800Z,70.10
2022-11-16T07:04:01.920Z,70.50
2022-11-16T07:06:30.515Z,70.10
2022-11-16T07:08:59.160Z,69.90
2022-11-16T07:11:31.229Z,69.80
2022-11-16T07:14:00.416Z,71.10
2022-11-16T07:16:30.043Z,70.60
2022-11-16T07:19:03.178Z,70.20
2022-11-16T07:21:33.315Z,70.10
2022-11-16T07:24:05.423Z,71.10
2022-11-16T07:26:33.620Z,70.80
2022-11-16T07:29:10.160Z,70.30
2022-11-16T07:31:42.664Z,70.40
2022-11-16T07:34:50.780Z,69.70
2022-11-16T07:37:21.659Z,69.50
2022-11-16T07:39:52.726Z,70.60
2022-11-16T07:42:21.076Z,69.60
2022-11-16T07:45:08.341Z,69.10
2022-11-16T07:47:41.299Z,69.10
2022-11-16T07:50:16.235Z,68.70
2022-11-16T07:52:46.543Z,68.50
2022-11-16T07:55:21.463Z,68.20
2022-11-16T07:57:53.585Z,68.80
2022-11-16T08:00:24.576Z,68.80
2022-11-16T08:03:00.487Z,68.40
2022-11-16T08:05:30.397Z,68.70
2022-11-16T08:07:58.898Z,68.80
2022-11-16T08:10:27.927Z,68.50
2022-11-16T08:12:57.026Z,68.30
2022-11-16T08:15:26.673Z,68.60
2022-11-16T08:17:55.073Z,68.20
2022-11-16T08:20:25.976Z,67.90
2022-11-16T08:23:00.638Z,68.00
2022-11-16T08:25:30.373Z,68.80
2022-11-16T08:27:59.001Z,69.00
2022-11-16T08:30:28.183Z,68.60
2022-11-16T08:32:59.534Z,68.00
2022-11-16T08:35:30.030Z,67.90
2022-11-16T08:38:00.102Z,67.40
2022-11-16T08:40:31.078Z,67.30
2022-11-16T08:42:59.383Z,67.60
2022-11-16T08:45:30.379Z,68.60
2022-11-16T08:48:04.074Z,69.70
2022-11-16T08:50:55.457Z,69.00
2022-11-16T08:53:26.902Z,68.70
2022-11-16T08:55:55.209Z,68.00
2022-11-16T08:58:24.325Z,68.00
2022-11-16T09:00:52.702Z,68.00
2022-11-16T09:03:21.023Z,67.40
2022-11-16T09:05:49.607Z,66.90
2022-11-16T09:08:17.879Z,67.30
2022-11-16T09:10:47.642Z,67.40
2022-11-16T09:13:15.905Z,66.50
2022-11-16T09:15:44.768Z,66.40
2022-11-16T09:18:13.062Z,65.70
2022-11-16T09:20:45.454Z,65.80
2022-11-16T09:23:13.735Z,66.00
2022-11-16T09:25:42.166Z,65.80
2022-11-16T09:28:12.371Z,66.00
2022-11-16T09:30:44.320Z,67.20
2022-11-16T09:33:13.439Z,66.30
2022-11-16T09:35:44.349Z,66.00
2022-11-16T09:38:17.659Z,67.10
2022-11-16T09:40:52.517Z,66.80
2022-11-16T09:43:34.490Z,66.10
2022-11-16T09:46:18.006Z,66.10
2022-11-16T09:48:47.553Z,66.30
2022-11-16T09:51:17.511Z,66.00
2022-11-16T09:53:49.535Z,65.90
2022-11-16T09:56:23.336Z,65.80
2022-11-16T09:58:58.132Z,65.30
2022-11-16T10:01:30.859Z,65.40
2022-11-16T10:04:03.781Z,65.50
2022-11-16T10:06:42.907Z,64.20
2022-11-16T10:09:13.326Z,63.50
2022-11-16T10:12:00.085Z,63.30
2022-11-16T10:14:54.724Z,63.50
2022-11-16T10:17:29.170Z,63.90
2022-11-16T10:20:15.695Z,64.10
2022-11-16T10:22:52.573Z,64.00
2022-11-16T10:25:23.880Z,64.60
2022-11-16T10:28:18.108Z,63.80
2022-11-16T10:30:57.541Z,63.60
2022-11-16T10:33:35.685Z,63.60
2022-11-16T10:36:13.664Z,63.20
2022-11-16T10:38:43.590Z,63.30
2022-11-16T10:41:20.993Z,62.70
2022-11-16T10:43:50.199Z,62.70
2022-11-16T10:46:25.531Z,62.90
2022-11-16T10:49:01.779Z,62.60
2022-11-16T10:51:30.102Z,62.50
2022-11-16T10:54:00.809Z,62.40
2022-11-16T10:56:32.004Z,62.30
2022-11-16T10:59:02.543Z,62.60
2022-11-16T11:01:38.215Z,62.30
2022-11-16T11:04:16.704Z,62.80
2022-11-16T11:06:46.261Z,62.60
2022-11-16T11:09:23.665Z,62.00
2022-11-16T11:12:21.316Z,62.00
2022-11-16T11:15:27.123Z,62.20
2022-11-16T11:18:19.129Z,61.60
2022-11-16T11:20:50.372Z,61.50
2022-11-16T11:23:21.526Z,61.80
2022-11-16T11:25:55.884Z,62.00
2022-11-16T11:28:28.636Z,62.50
2022-11-16T11:31:00.836Z,61.90
2022-11-16T11:33:34.339Z,61.20
2022-11-16T11:36:06.263Z,61.00
2022-11-16T11:38:36.138Z,60.50
2022-11-16T11:41:06.176Z,61.20
2022-11-16T11:43:35.201Z,61.00
2022-11-16T11:46:13.071Z,60.90
2022-11-16T11:48:50.813Z,61.50
2022-11-16T11:51:25.386Z,61.40
2022-11-16T11:53:56.779Z,61.20
2022-11-16T11:56:26.316Z,60.80
2022-11-16T11:58:55.487Z,61.10
2022-11-16T12:01:51.386Z,61.50
2022-11-16T12:04:53.006Z,61.40
2022-11-16T12:07:36.908Z,62.00
2022-11-16T12:10:14.200Z,62.20
2022-11-16T12:12:54.816Z,60.80
2022-11-16T12:15:41.869Z,61.00
2022-11-16T12:18:29.951Z,61.60
2022-11-16T12:21:07.637Z,61.50
2022-11-16T12:23:58.482Z,61.90
2022-11-16T12:26:36.900Z,61.50
2022-11-16T12:29:21.672Z,60.80
2022-11-16T12:32:19.895Z,60.30
2022-11-16T12:35:01.547Z,61.60
2022-11-16T12:37:41.719Z,61.30
2022-11-16T12:40:34.710Z,61.10
2022-11-16T12:43:14.498Z,60.50
2022-11-16T12:45:51.884Z,60.50
2022-11-16T12:48:59.213Z,60.70
2022-11-16T12:51:40.050Z,61.10
2022-11-16T12:54:37.990Z,61.90
2022-11-16T12:57:13.524Z,61.80
2022-11-16T13:00:03.316Z,61.50
2022-11-16T13:02:52.159Z,60.90
2022-11-16T13:05:22.980Z,60.50
2022-11-16T13:07:54.879Z,60.30
2022-11-16T13:10:28.473Z,60.20
2022-11-16T13:13:34.985Z,60.00
2022-11-16T13:15:50.952Z,60.30
2022-11-16T13:18:22.566Z,60.40
2022-11-16T13:20:57.336Z,60.70
2022-11-16T13:23:36.367Z,61.70
2022-11-16T13:26:11.940Z,61.00
2022-11-16T13:28:51.865Z,60.50
2022-11-16T13:31:25.366Z,59.80
2022-11-16T13:33:58.250Z,59.60
2022-11-16T13:36:46.406Z,60.20
2022-11-16T13:39:21.935Z,59.90
2022-11-16T13:42:06.174Z,59.60
2022-11-16T13:44:35.305Z,59.20
2022-11-16T13:47:05.735Z,59.10
2022-11-16T13:49:36.607Z,58.80
2022-11-16T13:52:22.637Z,59.10
2022-11-16T13:54:56.958Z,59.10
2022-11-16T13:57:30.756Z,59.30
2022-11-16T14:00:13.223Z,58.90
2022-11-16T14:02:42.892Z,59.20
2022-11-16T14:05:40.036Z,59.40
2022-11-16T14:08:44.244Z,58.90
2022-11-16T14:11:32.114Z,59.70
2022-11-16T14:14:05.614Z,59.30
2022-11-16T14:16:44.879Z,58.70
2022-11-16T14:19:52.058Z,58.40
2022-11-16T14:22:52.499Z,58.40
2022-11-16T14:25:34.891Z,58.20
2022-11-16T14:28:24.692Z,58.80
2022-11-16T14:31:02.239Z,58.30
2022-11-16T14:33:34.623Z,58.10
2022-11-16T14:36:09.444Z,57.70
2022-11-16T14:38:40.417Z,57.30
2022-11-16T14:41:19.431Z,57.60
2022-11-16T14:43:50.942Z,57.90
2022-11-16T14:46:24.090Z,57.40
2022-11-16T14:48:57.367Z,57.00
2022-11-16T14:51:30.823Z,56.70
2022-11-16T14:54:02.990Z,57.20
2022-11-16T14:56:31.436Z,57.10
2022-11-16T14:59:01.791Z,57.30
2022-11-16T15:01:34.877Z,57.70
2022-11-16T15:04:04.775Z,57.40
2022-11-16T15:06:40.175Z,57.70
2022-11-16T15:09:17.898Z,57.10
2022-11-16T15:12:07.840Z,57.30
2022-11-16T15:14:41.080Z,56.70
2022-11-16T15:17:17.689Z,56.60
2022-11-16T15:19:54.499Z,56.90
2022-11-16T15:22:26.102Z,56.70
2022-11-16T15:24:58.719Z,56.50
2022-11-16T15:27:36.744Z,56.20
2022-11-16T15:30:14.851Z,57.10
2022-11-16T15:32:48.779Z,56.70
2022-11-16T15:35:22.157Z,56.30
2022-11-16T15:38:00.873Z,56.40
2022-11-16T15:40:31.728Z,56.50
2022-11-16T15:43:04.877Z,56.40
2022-11-16T15:45:33.812Z,56.00
2022-11-16T15:48:04.990Z,55.50
2022-11-16T15:50:33.369Z,55.30
2022-11-16T15:53:01.680Z,55.80
2022-11-16T15:55:36.849Z,55.80
2022-11-16T15:58:15.428Z,55.20
2022-11-16T16:00:48.324Z,55.00
2022-11-16T16:03:24.586Z,54.60
2022-11-16T16:05:53.668Z,54.40
2022-11-16T16:08:31.356Z,54.50
2022-11-16T16:11:01.909Z,54.90
2022-11-16T16:13:33.965Z,55.20
2022-11-16T16:16:26.151Z,55.30
2022-11-16T16:18:59.073Z,55.10
2022-11-16T16:21:40.665Z,54.50
2022-11-16T16:24:10.765Z,54.80
2022-11-16T16:26:39.279Z,54.60
2022-11-16T16:29:07.590Z,54.10
2022-11-16T16:31:38.364Z,54.10
2022-11-16T16:34:13.442Z,53.70
2022-11-16T16:36:41.691Z,53.30
2022-11-16T16:39:12.677Z,52.90
2022-11-16T16:41:41.320Z,52.50
2022-11-16T16:44:16.283Z,52.40
2022-11-16T16:46:44.593Z,52.00
2022-11-16T16:49:14.274Z,51.90
2022-11-16T16:51:42.627Z,52.10
2022-11-16T16:54:15.191Z,52.20
2022-11-16T16:56:43.526Z,52.00
2022-11-16T16:59:14.542Z,52.10
2022-11-16T17:01:42.982Z,52.80
2022-11-16T17:04:11.596Z,52.70
2022-11-16T17:06:46.217Z,52.20
2022-11-16T17:09:14.997Z,51.70
2022-11-16T17:11:43.417Z,52.40
2022-11-16T17:14:12.074Z,52.20
2022-11-16T17:16:40.855Z,51.80
2022-11-16T17:19:09.300Z,51.60
2022-11-16T17:21:37.742Z,51.20
2022-11-16T17:24:07.894Z,51.50
2022-11-16T17:26:36.286Z,53.90
2022-11-16T17:29:04.860Z,52.80
2022-11-16T17:31:33.211Z,52.50
2022-11-16T17:34:01.688Z,52.00
2022-11-16T17:36:30.115Z,51.80
2022-11-16T17:38:59.710Z,51.70
2022-11-16T17:41:32.133Z,52.10
2022-11-16T17:44:00.456Z,52.10
2022-11-16T17:46:29.191Z,52.00
2022-11-16T17:48:57.825Z,52.00
2022-11-16T17:51:27.913Z,51.80
2022-11-16T17:53:56.296Z,51.70
2022-11-16T17:56:27.042Z,52.10
2022-11-16T17:58:58.499Z,52.10
2022-11-16T18:01:28.215Z,52.60
2022-11-16T18:03:56.796Z,52.70
2022-11-16T18:06:26.247Z,52.70
2022-11-16T18:08:55.494Z,52.90
2022-11-16T18:11:28.566Z,53.00
2022-11-16T18:16:56.876Z,53.40
2022-11-16T18:19:25.677Z,53.30
2022-11-16T18:21:56.121Z,52.90
2022-11-16T18:24:24.555Z,54.00
2022-11-16T19:08:00.522Z,52.30
2022-11-16T19:10:28.964Z,52.30
2022-11-16T19:12:57.486Z,53.10
2022-11-16T19:15:26.388Z,52.60
2022-11-16T19:18:19.879Z,52.00
2022-11-16T19:20:46.864Z,51.70
2022-11-16T19:23:16.630Z,51.70
2022-11-16T19:25:47.343Z,52.50
2022-11-16T19:28:15.679Z,52.50
2022-11-16T19:30:43.989Z,52.10
2022-11-16T19:33:16.218Z,52.20
2022-11-16T19:35:46.932Z,52.50
2022-11-16T19:38:16.692Z,52.40
2022-11-16T19:40:45.081Z,52.00
2022-11-16T19:43:13.454Z,52.10
2022-11-16T19:45:41.769Z,51.50
2022-11-16T19:48:12.142Z,51.60
2022-11-16T19:50:40.483Z,51.40
2022-11-16T19:53:11.020Z,50.90
2022-11-16T19:55:44.213Z,50.90
2022-11-16T19:58:12.587Z,50.60
2022-11-16T20:00:42.986Z,50.20
2022-11-16T20:03:11.362Z,50.70
2022-11-16T20:05:39.784Z,50.60
2022-11-16T20:08:08.209Z,50.30
2022-11-16T20:10:36.561Z,50.30
2022-11-16T20:13:06.314Z,50.30
2022-11-16T20:15:37.108Z,50.50
2022-11-16T20:18:05.803Z,50.50
2022-11-16T20:20:36.265Z,50.30
2022-11-16T20:23:04.597Z,50.30
2022-11-16T20:25:33.050Z,50.10
2022-11-16T20:28:01.476Z,49.90
2022-11-16T20:30:33.186Z,50.00
2022-11-16T20:33:01.526Z,49.90
2022-11-16T20:35:29.932Z,50.30
2022-11-16T20:37:58.282Z,50.10
2022-11-16T20:40:26.694Z,49.90
2022-11-16T20:42:59.137Z,50.00
2022-11-16T20:45:27.610Z,50.00
2022-11-16T20:47:57.295Z,49.90
2022-11-16T20:50:25.659Z,49.60
2022-11-16T20:52:54.031Z,49.50
2022-11-16T20:55:22.289Z,49.70
2022-11-16T20:57:50.574Z,50.00
2022-11-16T21:00:19.742Z,50.10
2022-11-16T21:02:48.090Z,49.50
2022-11-16T21:05:19.979Z,49.70
2022-11-16T21:07:48.114Z,49.70
2022-11-16T21:10:22.284Z,50.80
2022-11-16T21:13:07.792Z,50.80
2022-11-16T21:15:38.497Z,50.50
2022-11-16T21:18:06.611Z,50.40
2022-11-16T21:20:36.211Z,49.90
2022-11-16T21:23:04.252Z,49.70
2022-11-16T21:25:33.203Z,50.00
2022-11-16T21:28:01.486Z,50.40
2022-11-16T21:30:29.778Z,50.80
2022-11-16T21:32:58.056Z,50.80
2022-11-16T21:35:27.307Z,50.40
2022-11-16T21:37:59.343Z,49.80
2022-11-16T21:40:29.839Z,49.60
2022-11-16T21:42:58.363Z,49.70
2022-11-16T21:45:29.286Z,49.60
2022-11-16T21:47:58.126Z,49.30
2022-11-16T21:50:32.507Z,49.10
2022-11-16T21:53:02.393Z,49.10
2022-11-16T21:55:30.708Z,49.40
2022-11-16T21:57:59.745Z,50.00
2022-11-16T22:00:28.172Z,50.40
2022-11-16T22:02:56.783Z,49.90
2022-11-16T22:05:42.338Z,49.70
2022-11-16T22:08:12.871Z,49.70
2022-11-16T22:10:41.292Z,49.70
2022-11-16T22:13:09.616Z,49.90
2022-11-16T22:15:37.926Z,50.30
2022-11-16T22:18:06.620Z,49.90
2022-11-16T22:20:34.884Z,49.70
2022-11-16T22:23:03.273Z,50.10
2022-11-16T22:25:33.275Z,50.40
2022-11-16T22:30:51.973Z,50.10
2022-11-16T22:33:20.777Z,51.00
2022-11-16T22:35:51.159Z,51.00
2022-11-16T22:38:19.576Z,50.50
2022-11-16T22:40:52.712Z,50.90
2022-11-16T22:43:22.013Z,50.70
2022-11-16T22:45:50.553Z,50.80
2022-11-16T22:48:19.285Z,50.60
2022-11-16T22:50:47.594Z,51.00
2022-11-16T22:53:18.304Z,50.80
2022-11-16T22:55:46.583Z,50.80
2022-11-16T22:58:16.332Z,51.00
2022-11-16T23:00:44.716Z,50.80
2022-11-16T23:03:13.093Z,50.80
2022-11-16T23:05:41.422Z,51.00
2022-11-16T23:08:09.738Z,51.10
2022-11-16T23:10:58.334Z,51.70
2022-11-16T23:13:45.254Z,52.60
2022-11-16T23:16:13.543Z,53.10
2022-11-16T23:18:44.175Z,53.10
2022-11-16T23:21:29.735Z,53.90
2022-11-16T23:24:20.937Z,54.90
2022-11-16T23:27:06.737Z,54.70
2022-11-16T23:29:36.472Z,54.60
2022-11-16T23:32:04.947Z,55.60
2022-11-16T23:34:33.212Z,55.50
2022-11-16T23:37:04.608Z,55.50
2022-11-16T23:39:33.548Z,55.70
2022-11-16T23:42:19.027Z,55.50
2022-11-16T23:44:48.771Z,55.80
2022-11-16T23:47:17.098Z,55.60
2022-11-16T23:49:45.420Z,55.70
2022-11-16T23:52:13.502Z,55.50
2022-11-16T23:54:41.627Z,56.20
2022-11-16T23:57:09.758Z,55.70
2022-11-16T23:59:37.842Z,55.90
